createdAt,value
2022-11-27T00:01:38.431Z,5.90
2022-11-27T00:06:40.356Z,5.80
2022-11-27T00:09:13.296Z,5.60
2022-11-27T00:11:41.917Z,5.60
2022-11-27T00:14:13.928Z,5.50
2022-11-27T00:16:43.099Z,5.50
2022-11-27T00:21:41.652Z,5.40
2022-11-27T00:24:12.071Z,5.30
2022-11-27T00:26:40.340Z,5.20
2022-11-27T00:29:09.038Z,5.20
2022-11-27T00:31:39.782Z,5.10
2022-11-27T00:34:09.658Z,5.10
2022-11-27T00:36:39.780Z,5.00
2022-11-27T00:39:11.892Z,5.00
2022-11-27T00:41:40.551Z,4.90
2022-11-27T00:46:37.444Z,4.80
2022-11-27T00:49:07.543Z,4.80
2022-11-27T00:51:36.031Z,4.70
2022-11-27T00:54:04.699Z,4.60
2022-11-27T00:56:37.614Z,4.60
2022-11-27T01:01:39.085Z,4.50
2022-11-27T01:04:10.146Z,4.50
2022-11-27T01:06:38.837Z,4.50
2022-11-27T01:11:37.607Z,4.40
2022-11-27T01:14:09.428Z,4.30
2022-11-27T01:19:13.323Z,4.20
2022-11-27T01:21:42.102Z,4.20
2022-11-27T01:24:12.963Z,4.20
2022-11-27T01:26:42.931Z,4.10
2022-11-27T01:29:12.465Z,4.10
2022-11-27T01:34:15.583Z,4.00
2022-11-27T01:36:44.060Z,4.00
2022-11-27T01:39:17.663Z,4.00
2022-11-27T01:41:49.315Z,3.90
2022-11-27T01:44:53.276Z,3.90
2022-11-27T01:47:41.085Z,3.90
2022-11-27T01:50:17.904Z,3.80
2022-11-27T01:52:51.871Z,3.80
2022-11-27T01:55:28.184Z,3.80
2022-11-27T01:58:01.820Z,3.70
2022-11-27T02:08:01.455Z,2.90
2022-11-27T02:10:40.940Z,3.60
2022-11-27T02:13:15.155Z,3.50
2022-11-27T02:15:55.156Z,3.50
2022-11-27T02:18:31.795Z,3.40
2022-11-27T02:21:06.998Z,3.40
2022-11-27T02:24:11.963Z,3.40
2022-11-27T02:27:25.843Z,3.40
2022-11-27T02:30:00.471Z,3.40
2022-11-27T02:32:35.911Z,3.30
2022-11-27T02:35:12.527Z,3.30
2022-11-27T02:37:48.380Z,3.30
2022-11-27T02:40:24.306Z,3.20
2022-11-27T02:42:58.093Z,3.10
2022-11-27T02:45:34.086Z,3.20
2022-11-27T02:50:35.558Z,3.10
2022-11-27T02:53:09.407Z,3.10
2022-11-27T02:55:41.531Z,3.10
2022-11-27T02:58:16.897Z,3.00
2022-11-27T03:03:22.495Z,2.90
2022-11-27T03:05:55.879Z,2.90
2022-11-27T03:08:34.542Z,2.80
2022-11-27T03:11:07.857Z,2.70
2022-11-27T03:16:17.608Z,2.70
2022-11-27T03:18:57.612Z,2.60
2022-11-27T03:21:32.503Z,2.50
2022-11-27T03:29:01.927Z,2.40
2022-11-27T03:31:32.264Z,2.40
2022-11-27T03:38:57.795Z,2.30
2022-11-27T03:41:35.819Z,2.30
2022-11-27T03:44:14.616Z,2.30
2022-11-27T03:46:57.981Z,2.30
2022-11-27T03:49:35.404Z,2.20
2022-11-27T03:52:14.626Z,2.20
2022-11-27T03:54:54.071Z,2.20
2022-11-27T03:57:29.923Z,2.20
2022-11-27T04:00:02.684Z,2.20
2022-11-27T04:02:44.002Z,2.10
2022-11-27T04:07:42.566Z,2.00
2022-11-27T04:10:12.753Z,1.90
2022-11-27T04:15:11.177Z,2.00
2022-11-27T04:17:40.998Z,1.90
2022-11-27T04:20:11.842Z,2.00
2022-11-27T04:25:09.947Z,2.00
2022-11-27T04:30:08.553Z,4.10
2022-11-27T04:35:07.663Z,2.00
2022-11-27T04:40:06.160Z,2.00
2022-11-27T04:47:31.684Z,2.00
2022-11-27T04:52:29.848Z,2.10
2022-11-27T05:09:53.482Z,2.20
2022-11-27T05:12:21.720Z,2.20
2022-11-27T05:19:47.056Z,2.30
2022-11-27T05:27:13.792Z,2.40
2022-11-27T05:44:36.415Z,2.60
2022-11-27T05:59:29.144Z,2.60
2022-11-27T06:01:58.736Z,2.60
2022-11-27T06:09:24.179Z,2.60
2022-11-27T06:19:19.672Z,2.70
2022-11-27T06:26:45.462Z,2.70
2022-11-27T06:34:13.600Z,2.70
2022-11-27T06:36:43.449Z,2.60
2022-11-27T06:39:12.720Z,2.60
2022-11-27T06:44:12.051Z,2.60
2022-11-27T06:49:08.873Z,2.60
2022-11-27T06:54:07.193Z,2.60
2022-11-27T06:59:04.187Z,2.60
2022-11-27T07:01:34.232Z,2.60
2022-11-27T07:11:31.955Z,2.60
2022-11-27T07:14:02.575Z,2.60
2022-11-27T07:16:32.925Z,2.60
2022-11-27T07:19:04.036Z,2.50
2022-11-27T07:21:32.999Z,2.50
2022-11-27T07:24:02.238Z,2.50
2022-11-27T07:26:32.235Z,2.50
2022-11-27T07:31:31.099Z,2.60
2022-11-27T07:33:59.984Z,2.60
2022-11-27T07:36:31.233Z,2.70
2022-11-27T07:44:04.238Z,2.80
2022-11-27T07:49:01.489Z,2.80
2022-11-27T07:58:58.579Z,2.90
2022-11-27T08:01:28.249Z,2.90
2022-11-27T08:06:27.762Z,3.00
2022-11-27T08:08:56.781Z,3.00
2022-11-27T08:11:27.561Z,3.00
2022-11-27T08:13:58.910Z,3.10
2022-11-27T08:16:29.296Z,3.10
2022-11-27T08:18:58.129Z,3.10
2022-11-27T08:26:27.487Z,3.10
2022-11-27T08:28:56.655Z,3.10
2022-11-27T08:31:25.198Z,3.20
2022-11-27T08:33:55.012Z,3.10
2022-11-27T08:38:55.923Z,3.30
2022-11-27T08:41:24.235Z,3.30
2022-11-27T08:46:21.181Z,3.50
2022-11-27T08:48:49.447Z,3.50
2022-11-27T08:51:19.207Z,3.50
2022-11-27T08:56:18.433Z,3.60
2022-11-27T08:58:47.518Z,3.70
2022-11-27T09:01:18.757Z,3.70
2022-11-27T09:03:47.284Z,3.80
2022-11-27T09:06:19.818Z,3.90
2022-11-27T09:11:20.147Z,4.00
2022-11-27T09:16:20.352Z,4.10
2022-11-27T09:18:52.324Z,4.20
2022-11-27T09:21:24.471Z,4.20
2022-11-27T09:23:55.088Z,4.30
2022-11-27T09:26:25.420Z,4.40
2022-11-27T09:28:55.808Z,4.50
2022-11-27T09:31:25.836Z,4.50
2022-11-27T09:36:26.945Z,4.70
2022-11-27T09:41:46.091Z,4.70
2022-11-27T09:44:34.400Z,4.70
2022-11-27T09:47:13.216Z,4.70
2022-11-27T09:49:47.595Z,4.80
2022-11-27T09:52:25.512Z,4.80
2022-11-27T09:54:58.428Z,4.90
2022-11-27T09:57:33.648Z,5.00
2022-11-27T10:00:07.235Z,5.00
2022-11-27T10:02:36.925Z,5.10
2022-11-27T10:08:07.019Z,5.10
2022-11-27T10:10:50.354Z,5.20
2022-11-27T10:13:34.637Z,5.20
2022-11-27T10:16:12.719Z,5.10
2022-11-27T10:18:46.578Z,5.10
2022-11-27T10:21:22.147Z,5.20
2022-11-27T10:23:59.582Z,5.30
2022-11-27T10:26:39.958Z,5.30
2022-11-27T10:29:19.254Z,5.40
2022-11-27T10:31:52.834Z,5.40
2022-11-27T10:34:34.387Z,5.40
2022-11-27T10:37:09.242Z,5.40
2022-11-27T10:39:43.391Z,5.50
2022-11-27T10:42:17.446Z,5.40
2022-11-27T10:47:22.691Z,5.40
2022-11-27T10:49:51.090Z,5.40
2022-11-27T10:52:21.165Z,5.40
2022-11-27T10:54:57.583Z,5.40
2022-11-27T10:58:04.241Z,5.40
2022-11-27T11:03:02.255Z,5.50
2022-11-27T11:05:50.623Z,5.50
2022-11-27T11:08:22.157Z,5.50
2022-11-27T11:10:58.839Z,5.50
2022-11-27T11:13:28.509Z,5.50
2022-11-27T11:16:00.732Z,5.60
2022-11-27T11:18:32.220Z,5.70
2022-11-27T11:21:03.670Z,5.70
2022-11-27T11:23:35.339Z,5.80
2022-11-27T11:26:16.492Z,6.00
2022-11-27T11:28:52.147Z,6.20
2022-11-27T11:31:24.097Z,6.40
2022-11-27T11:33:58.040Z,6.60
2022-11-27T11:38:55.546Z,7.10
2022-11-27T11:41:25.136Z,7.20
2022-11-27T11:44:00.991Z,7.30
2022-11-27T11:46:32.766Z,7.40
2022-11-27T11:49:07.393Z,7.60
2022-11-27T11:52:14.537Z,7.90
2022-11-27T11:55:04.542Z,8.00
2022-11-27T11:58:10.316Z,8.10
2022-11-27T12:01:04.729Z,8.10
2022-11-27T12:03:57.097Z,8.10
2022-11-27T12:06:45.923Z,8.00
2022-11-27T12:09:37.835Z,8.10
2022-11-27T12:12:20.656Z,8.10
2022-11-27T12:14:57.515Z,8.10
2022-11-27T12:17:48.729Z,8.10
2022-11-27T12:20:22.486Z,8.10
2022-11-27T12:23:43.479Z,8.20
2022-11-27T12:26:25.516Z,8.30
2022-11-27T12:29:35.032Z,8.40
2022-11-27T12:32:40.246Z,8.60
2022-11-27T12:35:31.182Z,9.00
2022-11-27T12:38:16.698Z,9.40
2022-11-27T12:41:17.993Z,9.80
2022-11-27T12:43:50.784Z,10.10
2022-11-27T12:46:27.681Z,10.30
2022-11-27T12:49:03.923Z,10.50
2022-11-27T12:51:38.619Z,10.50
2022-11-27T12:54:13.610Z,10.40
2022-11-27T12:56:48.343Z,10.30
2022-11-27T12:59:23.605Z,10.10
2022-11-27T13:02:02.451Z,9.80
2022-11-27T13:04:39.336Z,9.80
2022-11-27T13:07:13.382Z,9.60
2022-11-27T13:09:51.032Z,9.40
2022-11-27T13:12:24.614Z,9.20
2022-11-27T13:15:01.582Z,9.10
2022-11-27T13:17:38.286Z,9.00
2022-11-27T13:20:18.524Z,8.80
2022-11-27T13:22:48.468Z,8.70
2022-11-27T13:27:51.089Z,8.50
2022-11-27T13:30:24.230Z,8.40
2022-11-27T13:32:56.403Z,8.30
2022-11-27T13:35:30.868Z,8.30
2022-11-27T13:38:11.175Z,8.20
2022-11-27T13:40:42.887Z,8.10
2022-11-27T13:43:28.695Z,8.00
2022-11-27T13:46:05.742Z,7.90
2022-11-27T13:48:37.876Z,7.90
2022-11-27T13:51:10.146Z,7.80
2022-11-27T13:53:41.002Z,7.80
2022-11-27T13:56:10.432Z,7.70
2022-11-27T13:58:41.047Z,7.70
2022-11-27T14:01:19.239Z,7.60
2022-11-27T14:06:24.799Z,7.50
2022-11-27T14:08:58.444Z,7.40
2022-11-27T14:11:39.936Z,7.40
2022-11-27T14:14:22.271Z,7.30
2022-11-27T14:16:59.139Z,7.30
2022-11-27T14:19:34.856Z,7.20
2022-11-27T14:22:15.723Z,7.20
2022-11-27T14:27:20.022Z,7.10
2022-11-27T14:32:19.500Z,7.10
2022-11-27T14:34:49.058Z,7.00
2022-11-27T14:37:29.486Z,7.00
2022-11-27T14:42:32.130Z,6.90
2022-11-27T14:45:06.608Z,6.90
2022-11-27T14:50:05.227Z,6.90
2022-11-27T14:52:35.158Z,6.80
2022-11-27T14:55:04.544Z,6.80
2022-11-27T14:57:32.996Z,6.80
2022-11-27T15:00:18.394Z,6.80
2022-11-27T15:02:47.522Z,6.70
2022-11-27T15:05:23.584Z,6.70
2022-11-27T15:07:55.163Z,6.60
2022-11-27T15:10:34.958Z,6.50
2022-11-27T15:13:06.022Z,6.50
2022-11-27T15:15:40.530Z,6.50
2022-11-27T15:18:10.246Z,6.40
2022-11-27T15:20:42.050Z,6.40
2022-11-27T15:23:21.540Z,6.30
2022-11-27T15:25:53.450Z,6.30
2022-11-27T15:28:36.659Z,6.30
2022-11-27T15:31:25.876Z,6.20
2022-11-27T15:34:07.140Z,6.20
2022-11-27T15:36:42.044Z,6.20
2022-11-27T15:39:23.057Z,6.10
2022-11-27T15:41:57.405Z,6.10
2022-11-27T15:44:27.943Z,6.10
2022-11-27T15:46:59.463Z,6.10
2022-11-27T15:51:58.123Z,6.10
2022-11-27T15:54:27.834Z,6.10
2022-11-27T16:06:52.850Z,6.10
2022-11-27T16:11:51.375Z,6.10
2022-11-27T16:24:15.511Z,6.00
2022-11-27T16:29:13.662Z,6.00
2022-11-27T16:36:43.665Z,5.90
2022-11-27T16:44:13.890Z,5.90
2022-11-27T16:46:44.249Z,5.90
2022-11-27T16:54:14.453Z,5.80
2022-11-27T16:59:15.899Z,5.90
2022-11-27T17:04:19.460Z,5.90
2022-11-27T17:06:49.057Z,5.90
2022-11-27T17:09:18.105Z,5.90
2022-11-27T17:11:49.416Z,5.90
2022-11-27T17:14:20.718Z,5.90
2022-11-27T17:24:18.301Z,5.90
2022-11-27T17:26:48.190Z,5.90
2022-11-27T17:29:20.870Z,5.90
2022-11-27T17:31:51.480Z,5.90
2022-11-27T17:41:51.214Z,5.80
2022-11-27T17:44:21.064Z,5.80
2022-11-27T17:54:20.558Z,5.80
2022-11-27T17:59:21.910Z,5.80
2022-11-27T18:09:18.880Z,5.80
2022-11-27T18:16:46.830Z,5.90
2022-11-27T18:32:07.709Z,5.90
2022-11-27T18:37:05.305Z,5.90
2022-11-27T18:39:33.824Z,5.90
2022-11-27T18:49:31.142Z,5.90
2022-11-27T19:06:53.756Z,5.90
2022-11-27T19:11:51.363Z,5.80
2022-11-27T19:22:11.497Z,5.70
2022-11-27T19:24:41.533Z,5.70
2022-11-27T19:34:35.666Z,5.70
2022-11-27T19:37:03.882Z,5.70
2022-11-27T19:39:33.443Z,5.70
2022-11-27T19:46:59.355Z,5.70
2022-11-27T19:51:56.446Z,5.80
2022-11-27T19:56:54.775Z,5.70
2022-11-27T20:04:29.603Z,5.80
2022-11-27T20:11:56.584Z,5.70
2022-11-27T20:16:55.177Z,5.80
2022-11-27T20:26:50.529Z,5.80
2022-11-27T20:29:20.152Z,5.80
2022-11-27T20:34:21.080Z,5.70
2022-11-27T20:36:50.340Z,5.80
2022-11-27T20:41:53.416Z,5.80
2022-11-27T20:44:23.799Z,5.80
2022-11-27T20:56:51.492Z,5.80
2022-11-27T20:59:22.020Z,5.80
2022-11-27T21:01:53.070Z,5.80
2022-11-27T21:04:26.867Z,5.80
2022-11-27T21:16:54.396Z,5.70
2022-11-27T21:19:25.543Z,5.70
2022-11-27T21:24:28.397Z,5.60
2022-11-27T21:26:57.454Z,5.70
2022-11-27T21:31:58.567Z,5.60
2022-11-27T21:36:56.452Z,5.60
2022-11-27T21:41:56.257Z,5.60
2022-11-27T21:44:25.796Z,5.60
2022-11-27T21:49:25.211Z,5.60
2022-11-27T21:51:55.698Z,5.60
2022-11-27T22:04:28.280Z,5.50
2022-11-27T22:14:22.640Z,5.50
2022-11-27T22:21:49.571Z,5.50
2022-11-27T22:31:49.662Z,5.60
2022-11-27T22:44:18.627Z,5.60
2022-11-27T22:46:48.481Z,5.60
2022-11-27T22:49:19.093Z,5.60
2022-11-27T22:54:17.981Z,5.50
2022-11-27T22:56:47.633Z,5.60
2022-11-27T23:02:06.180Z,5.60
2022-11-27T23:04:34.983Z,5.60
2022-11-27T23:07:06.693Z,5.50
2022-11-27T23:12:04.449Z,5.50
2022-11-27T23:17:01.897Z,5.40
2022-11-27T23:19:30.295Z,5.40
2022-11-27T23:24:28.590Z,5.40
2022-11-27T23:41:50.290Z,5.40
2022-11-27T23:46:48.016Z,5.40
2022-11-27T23:54:13.851Z,5.40
2022-11-27T23:56:43.026Z,5.40
2022-11-27T23:59:12.957Z,5.30
